AAL134 KLAX-EGLL
Flight info
| Callsign | AAL134 |
|---|---|
| Flight time | N/A |
| Altitude | 33000 |
| Route | DOTSS2 CNERY DCT BLH DCT WOBUG DCT EWM DCT SUMMY DCT BGS J66 FUZ DCT TXK DCT GAGLE DCT RUTTH DCT LORNN DCT WILUM DCT DIXXY DCT HAFNR DCT AGARD DCT CYN DCT DUNEE DCT ACK DCT KANNI N97B SUPRY/M083F330 DCT 46N050W 48N040W 50N030W 52N020W DCT LIMRI/N0477F330 DCT XETBO DCT UNBEG DCT LIFFY UL975 MALUD Q38 NUGRA |
| Aircraft | B77W/H-SDE1E2E3FGHIJ2J3J4J5M1RWXY/LB1D1 |
Departure
| Time | N/A |
|---|---|
| Airport | Los Angeles International Airport (KLAX) |
Arrival
| Time | 2026-05-05 14:54 |
|---|---|
| Airport | London Heathrow Airport (EGLL) |
| Time | Latitude | Longitude | Altitude | Speed | Heading |
|---|---|---|---|---|---|
| 2026-05-05 13:26 | 52.01489 | -15.84864 | 35235 ft | 500 kts | 91° |
| 2026-05-05 13:26 | 52.01327 | -15.73591 | 35231 ft | 500 kts | 91° |
| 2026-05-05 13:27 | 52.01153 | -15.62308 | 35222 ft | 499 kts | 91° |
| 2026-05-05 13:27 | 52.00969 | -15.51104 | 35225 ft | 499 kts | 91° |
| 2026-05-05 13:28 | 52.00774 | -15.39843 | 35224 ft | 499 kts | 91° |
| 2026-05-05 13:28 | 52.00569 | -15.28583 | 35213 ft | 499 kts | 91° |
| 2026-05-05 13:29 | 52.00353 | -15.17336 | 35219 ft | 498 kts | 91° |
| 2026-05-05 13:29 | 52.00128 | -15.06105 | 35216 ft | 498 kts | 91° |
| 2026-05-05 13:30 | 51.99935 | -14.94868 | 35216 ft | 498 kts | 90° |
| 2026-05-05 13:30 | 51.99987 | -14.83618 | 35243 ft | 498 kts | 89° |
| 2026-05-05 13:31 | 52.00070 | -14.72383 | 35212 ft | 498 kts | 89° |
| 2026-05-05 13:31 | 52.00104 | -14.61226 | 35216 ft | 497 kts | 89° |
| 2026-05-05 13:32 | 52.00108 | -14.50002 | 35214 ft | 497 kts | 90° |
| 2026-05-05 13:32 | 52.00099 | -14.38770 | 35210 ft | 497 kts | 90° |
| 2026-05-05 13:33 | 52.00083 | -14.27560 | 35211 ft | 496 kts | 90° |
| 2026-05-05 13:33 | 52.00059 | -14.16411 | 35205 ft | 496 kts | 90° |
| 2026-05-05 13:34 | 52.00108 | -14.05219 | 35207 ft | 495 kts | 85° |
| 2026-05-05 13:34 | 52.00953 | -13.95978 | 35206 ft | 494 kts | 76° |
| 2026-05-05 13:35 | 52.02948 | -13.85337 | 35206 ft | 493 kts | 70° |
| 2026-05-05 13:35 | 52.05195 | -13.74824 | 35198 ft | 493 kts | 69° |
| 2026-05-05 13:36 | 52.07412 | -13.64337 | 35198 ft | 493 kts | 70° |
| 2026-05-05 13:36 | 52.09604 | -13.53755 | 35199 ft | 493 kts | 70° |
| 2026-05-05 13:37 | 52.11776 | -13.43155 | 35191 ft | 494 kts | 70° |
| 2026-05-05 13:37 | 52.13933 | -13.32558 | 35195 ft | 493 kts | 70° |
| 2026-05-05 13:38 | 52.16081 | -13.21957 | 35186 ft | 493 kts | 70° |
| 2026-05-05 13:38 | 52.18218 | -13.11359 | 35187 ft | 492 kts | 70° |
| 2026-05-05 13:39 | 52.20328 | -13.00837 | 35187 ft | 491 kts | 70° |
| 2026-05-05 13:39 | 52.22441 | -12.90245 | 35189 ft | 491 kts | 71° |
| 2026-05-05 13:40 | 52.24547 | -12.79631 | 35182 ft | 491 kts | 71° |
| 2026-05-05 13:40 | 52.26640 | -12.69023 | 35177 ft | 491 kts | 71° |
| 2026-05-05 13:41 | 52.28721 | -12.58419 | 35177 ft | 491 kts | 71° |
| 2026-05-05 13:41 | 52.30795 | -12.47791 | 35172 ft | 491 kts | 71° |
| 2026-05-05 13:42 | 52.32859 | -12.37156 | 35176 ft | 490 kts | 71° |
| 2026-05-05 13:42 | 52.34911 | -12.26523 | 35172 ft | 490 kts | 71° |
| 2026-05-05 13:43 | 52.36938 | -12.15962 | 35166 ft | 490 kts | 71° |
| 2026-05-05 13:43 | 52.38967 | -12.05333 | 35165 ft | 489 kts | 71° |
| 2026-05-05 13:44 | 52.40987 | -11.94691 | 35171 ft | 490 kts | 71° |
| 2026-05-05 13:44 | 52.43001 | -11.84016 | 35165 ft | 490 kts | 71° |
| 2026-05-05 13:45 | 52.45005 | -11.73339 | 35164 ft | 490 kts | 71° |
| 2026-05-05 13:45 | 52.46988 | -11.62710 | 35160 ft | 490 kts | 71° |
| 2026-05-05 13:46 | 52.48973 | -11.52006 | 35163 ft | 490 kts | 71° |
| 2026-05-05 13:46 | 52.50947 | -11.41304 | 35156 ft | 490 kts | 72° |
| 2026-05-05 13:47 | 52.52910 | -11.30598 | 35155 ft | 490 kts | 72° |
| 2026-05-05 13:47 | 52.54866 | -11.19869 | 35151 ft | 489 kts | 72° |
| 2026-05-05 13:48 | 52.56808 | -11.09153 | 35152 ft | 489 kts | 72° |
| 2026-05-05 13:48 | 52.58738 | -10.98442 | 35144 ft | 489 kts | 72° |
| 2026-05-05 13:49 | 52.60663 | -10.87699 | 35144 ft | 489 kts | 72° |
| 2026-05-05 13:49 | 52.62562 | -10.77029 | 35143 ft | 489 kts | 72° |
| 2026-05-05 13:50 | 52.64465 | -10.66278 | 35135 ft | 489 kts | 72° |
| 2026-05-05 13:50 | 52.66358 | -10.55519 | 35137 ft | 489 kts | 72° |
| 2026-05-05 13:51 | 52.68240 | -10.44757 | 35131 ft | 489 kts | 72° |
| 2026-05-05 13:51 | 52.70113 | -10.33986 | 35131 ft | 489 kts | 73° |
| 2026-05-05 13:52 | 52.71976 | -10.23203 | 35133 ft | 489 kts | 73° |
| 2026-05-05 13:52 | 52.73832 | -10.12392 | 35133 ft | 489 kts | 73° |
| 2026-05-05 13:53 | 52.75668 | -10.01639 | 35128 ft | 490 kts | 73° |
| 2026-05-05 13:53 | 52.77506 | -9.90797 | 35129 ft | 490 kts | 73° |
| 2026-05-05 13:54 | 52.79337 | -9.79943 | 35128 ft | 490 kts | 73° |
| 2026-05-05 13:54 | 52.81173 | -9.69077 | 35119 ft | 491 kts | 73° |
| 2026-05-05 13:55 | 52.83105 | -9.58258 | 35123 ft | 491 kts | 72° |
| 2026-05-05 13:55 | 52.85044 | -9.47509 | 35116 ft | 491 kts | 73° |
| 2026-05-05 13:56 | 52.86974 | -9.36683 | 35116 ft | 491 kts | 73° |
| 2026-05-05 13:56 | 52.88885 | -9.25835 | 35109 ft | 491 kts | 73° |
| 2026-05-05 13:57 | 52.90785 | -9.14958 | 35113 ft | 491 kts | 73° |
| 2026-05-05 13:57 | 52.92673 | -9.04086 | 35108 ft | 491 kts | 73° |
| 2026-05-05 13:58 | 52.94553 | -8.93201 | 35106 ft | 491 kts | 73° |
| 2026-05-05 13:58 | 52.96413 | -8.82369 | 35103 ft | 491 kts | 73° |
| 2026-05-05 13:59 | 52.99199 | -8.66011 | 35095 ft | 491 kts | 73° |
| 2026-05-05 14:00 | 53.01653 | -8.51477 | 35087 ft | 491 kts | 73° |
| 2026-05-05 14:00 | 53.03789 | -8.38724 | 35096 ft | 490 kts | 73° |
| 2026-05-05 14:01 | 53.05605 | -8.27804 | 35098 ft | 489 kts | 73° |
| 2026-05-05 14:01 | 53.07408 | -8.16898 | 35092 ft | 489 kts | 74° |
| 2026-05-05 14:02 | 53.09190 | -8.06050 | 35089 ft | 489 kts | 74° |
| 2026-05-05 14:02 | 53.10975 | -7.95116 | 35092 ft | 490 kts | 74° |
| 2026-05-05 14:03 | 53.12751 | -7.84165 | 35082 ft | 490 kts | 74° |
| 2026-05-05 14:03 | 53.14519 | -7.73188 | 35085 ft | 490 kts | 74° |
| 2026-05-05 14:04 | 53.16279 | -7.62190 | 35084 ft | 491 kts | 74° |
| 2026-05-05 14:04 | 53.18028 | -7.51190 | 35083 ft | 491 kts | 75° |
| 2026-05-05 14:05 | 53.19757 | -7.40250 | 35081 ft | 491 kts | 75° |
| 2026-05-05 14:05 | 53.21488 | -7.29216 | 35083 ft | 491 kts | 75° |
| 2026-05-05 14:06 | 53.23209 | -7.18171 | 35075 ft | 491 kts | 75° |
| 2026-05-05 14:06 | 53.24917 | -7.07141 | 35072 ft | 491 kts | 75° |
| 2026-05-05 14:07 | 53.26614 | -6.96105 | 35071 ft | 490 kts | 75° |
| 2026-05-05 14:07 | 53.28300 | -6.85064 | 35071 ft | 490 kts | 75° |
| 2026-05-05 14:08 | 53.29963 | -6.74100 | 35079 ft | 490 kts | 75° |
| 2026-05-05 14:08 | 53.31629 | -6.63039 | 35075 ft | 490 kts | 75° |
| 2026-05-05 14:09 | 53.33287 | -6.51955 | 35077 ft | 491 kts | 76° |
| 2026-05-05 14:09 | 53.34937 | -6.40847 | 35077 ft | 492 kts | 76° |
| 2026-05-05 14:10 | 53.36570 | -6.29780 | 35078 ft | 492 kts | 76° |
| 2026-05-05 14:10 | 53.38201 | -6.18646 | 35077 ft | 492 kts | 76° |
| 2026-05-05 14:11 | 53.39824 | -6.07488 | 35077 ft | 494 kts | 76° |
| 2026-05-05 14:11 | 53.41441 | -5.96287 | 35078 ft | 494 kts | 76° |
| 2026-05-05 14:12 | 53.43047 | -5.85079 | 35078 ft | 495 kts | 76° |
| 2026-05-05 14:12 | 53.44648 | -5.73830 | 35071 ft | 495 kts | 77° |
| 2026-05-05 14:13 | 53.46237 | -5.62589 | 35071 ft | 495 kts | 77° |
| 2026-05-05 14:13 | 53.47619 | -5.51278 | 35068 ft | 495 kts | 83° |
| 2026-05-05 14:14 | 53.47831 | -5.39745 | 35076 ft | 493 kts | 94° |
| 2026-05-05 14:14 | 53.47435 | -5.28246 | 35080 ft | 493 kts | 94° |
| 2026-05-05 14:15 | 53.47102 | -5.16723 | 35074 ft | 494 kts | 93° |
| 2026-05-05 14:15 | 53.46755 | -5.05297 | 35074 ft | 493 kts | 94° |
| 2026-05-05 14:16 | 53.46369 | -4.93800 | 35063 ft | 493 kts | 94° |
| 2026-05-05 14:16 | 53.45980 | -4.82324 | 35063 ft | 493 kts | 94° |
| 2026-05-05 14:17 | 53.45569 | -4.70852 | 35063 ft | 492 kts | 94° |
| 2026-05-05 14:17 | 53.45156 | -4.59389 | 35059 ft | 492 kts | 94° |
| 2026-05-05 14:18 | 53.44787 | -4.47938 | 35057 ft | 491 kts | 94° |
| 2026-05-05 14:18 | 53.44412 | -4.36509 | 35056 ft | 490 kts | 94° |
| 2026-05-05 14:19 | 53.43988 | -4.25089 | 35056 ft | 490 kts | 95° |
| 2026-05-05 14:19 | 53.43510 | -4.13683 | 35055 ft | 490 kts | 95° |
| 2026-05-05 14:20 | 53.43035 | -4.02365 | 35052 ft | 489 kts | 95° |
| 2026-05-05 14:20 | 53.42559 | -3.90988 | 35045 ft | 488 kts | 94° |
| 2026-05-05 14:21 | 53.42097 | -3.79628 | 35049 ft | 487 kts | 94° |
| 2026-05-05 14:21 | 53.41602 | -3.68298 | 35046 ft | 487 kts | 97° |
| 2026-05-05 14:22 | 53.40125 | -3.57345 | 35044 ft | 485 kts | 109° |
| 2026-05-05 14:22 | 53.37421 | -3.47041 | 35048 ft | 483 kts | 118° |
| 2026-05-05 14:23 | 53.34942 | -3.38659 | 35046 ft | 483 kts | 117° |
| 2026-05-05 14:23 | 53.32011 | -3.28512 | 35043 ft | 484 kts | 117° |
| 2026-05-05 14:24 | 53.29067 | -3.18365 | 35046 ft | 484 kts | 117° |
| 2026-05-05 14:24 | 53.26122 | -3.08264 | 35047 ft | 484 kts | 117° |
| 2026-05-05 14:25 | 53.23160 | -2.98148 | 35044 ft | 485 kts | 117° |
| 2026-05-05 14:25 | 53.20190 | -2.88053 | 35052 ft | 483 kts | 117° |
| 2026-05-05 14:26 | 53.17246 | -2.78079 | 35016 ft | 482 kts | 117° |
| 2026-05-05 14:26 | 53.14277 | -2.68066 | 35020 ft | 481 kts | 117° |
| 2026-05-05 14:27 | 53.11306 | -2.58087 | 35015 ft | 480 kts | 117° |
| 2026-05-05 14:27 | 53.08327 | -2.48123 | 35017 ft | 480 kts | 117° |
| 2026-05-05 14:28 | 53.05370 | -2.38266 | 35006 ft | 479 kts | 117° |
| 2026-05-05 14:28 | 53.01801 | -2.29083 | 35004 ft | 473 kts | 139° |
| 2026-05-05 14:29 | 52.99129 | -2.25973 | 35012 ft | 468 kts | 150° |
| 2026-05-05 14:29 | 52.96312 | -2.23218 | 35019 ft | 474 kts | 149° |
| 2026-05-05 14:29 | 52.90649 | -2.17468 | 35011 ft | 477 kts | 148° |
| 2026-05-05 14:30 | 52.87825 | -2.14537 | 34575 ft | 483 kts | 148° |
| 2026-05-05 14:30 | 52.84958 | -2.11545 | 33758 ft | 487 kts | 147° |
| 2026-05-05 14:30 | 52.82100 | -2.08558 | 32889 ft | 484 kts | 147° |
| 2026-05-05 14:30 | 52.79273 | -2.05607 | 32327 ft | 476 kts | 147° |
| 2026-05-05 14:31 | 52.76487 | -2.02706 | 31722 ft | 470 kts | 148° |
| 2026-05-05 14:31 | 52.73738 | -1.99850 | 31160 ft | 464 kts | 149° |
| 2026-05-05 14:31 | 52.71019 | -1.97031 | 30617 ft | 459 kts | 149° |
| 2026-05-05 14:31 | 52.68353 | -1.94274 | 30079 ft | 454 kts | 149° |
| 2026-05-05 14:32 | 52.65687 | -1.91522 | 29446 ft | 449 kts | 149° |
| 2026-05-05 14:32 | 52.63053 | -1.88806 | 28862 ft | 443 kts | 150° |
| 2026-05-05 14:32 | 52.60455 | -1.86132 | 28283 ft | 438 kts | 150° |
| 2026-05-05 14:32 | 52.57887 | -1.83491 | 27744 ft | 433 kts | 150° |
| 2026-05-05 14:33 | 52.55347 | -1.80883 | 27204 ft | 428 kts | 150° |
| 2026-05-05 14:33 | 52.52828 | -1.78302 | 26669 ft | 424 kts | 150° |
| 2026-05-05 14:33 | 52.50334 | -1.75747 | 26121 ft | 420 kts | 150° |
| 2026-05-05 14:33 | 52.47866 | -1.73225 | 25608 ft | 417 kts | 150° |
| 2026-05-05 14:34 | 52.45414 | -1.70721 | 25087 ft | 413 kts | 150° |
| 2026-05-05 14:34 | 52.42980 | -1.68240 | 24587 ft | 410 kts | 150° |
| 2026-05-05 14:34 | 52.40565 | -1.65781 | 24074 ft | 408 kts | 150° |
| 2026-05-05 14:34 | 52.38164 | -1.63338 | 23581 ft | 406 kts | 150° |
| 2026-05-05 14:35 | 52.35766 | -1.60903 | 22979 ft | 404 kts | 150° |
| 2026-05-05 14:35 | 52.33386 | -1.58488 | 22439 ft | 401 kts | 150° |
| 2026-05-05 14:35 | 52.31029 | -1.56099 | 21933 ft | 397 kts | 150° |
| 2026-05-05 14:35 | 52.28716 | -1.53757 | 21445 ft | 394 kts | 150° |
| 2026-05-05 14:36 | 52.26395 | -1.51410 | 20945 ft | 391 kts | 150° |
| 2026-05-05 14:36 | 52.24085 | -1.49079 | 20437 ft | 388 kts | 150° |
| 2026-05-05 14:36 | 52.21794 | -1.46765 | 19976 ft | 385 kts | 149° |
| 2026-05-05 14:36 | 52.19637 | -1.44201 | 19600 ft | 383 kts | 142° |
| 2026-05-05 14:37 | 52.17609 | -1.41363 | 19221 ft | 386 kts | 140° |
| 2026-05-05 14:37 | 52.15667 | -1.38524 | 18856 ft | 390 kts | 139° |
| 2026-05-05 14:37 | 52.13644 | -1.35580 | 18459 ft | 390 kts | 139° |
| 2026-05-05 14:37 | 52.11611 | -1.32666 | 18023 ft | 389 kts | 140° |
| 2026-05-05 14:38 | 52.09571 | -1.29786 | 17600 ft | 387 kts | 140° |
| 2026-05-05 14:38 | 52.07532 | -1.26935 | 17180 ft | 385 kts | 141° |
| 2026-05-05 14:38 | 52.05509 | -1.24122 | 16794 ft | 383 kts | 141° |
| 2026-05-05 14:38 | 52.03489 | -1.21322 | 16406 ft | 381 kts | 140° |
| 2026-05-05 14:39 | 52.01478 | -1.18539 | 16005 ft | 378 kts | 140° |
| 2026-05-05 14:39 | 51.99485 | -1.15781 | 15622 ft | 376 kts | 140° |
| 2026-05-05 14:39 | 51.97504 | -1.13046 | 15254 ft | 373 kts | 140° |
| 2026-05-05 14:39 | 51.95530 | -1.10323 | 14855 ft | 371 kts | 140° |
| 2026-05-05 14:40 | 51.93564 | -1.07614 | 14374 ft | 370 kts | 140° |
| 2026-05-05 14:40 | 51.91637 | -1.04961 | 13906 ft | 368 kts | 140° |
| 2026-05-05 14:40 | 51.89710 | -1.02311 | 13412 ft | 365 kts | 140° |
| 2026-05-05 14:40 | 51.87782 | -0.99661 | 12903 ft | 362 kts | 140° |
| 2026-05-05 14:41 | 51.85890 | -0.97027 | 12431 ft | 354 kts | 136° |
| 2026-05-05 14:41 | 51.84433 | -0.93907 | 11992 ft | 343 kts | 116° |
| 2026-05-05 14:41 | 51.83443 | -0.90434 | 11594 ft | 339 kts | 115° |
| 2026-05-05 14:41 | 51.82439 | -0.87010 | 11202 ft | 334 kts | 115° |
| 2026-05-05 14:42 | 51.81439 | -0.83683 | 10710 ft | 323 kts | 115° |
| 2026-05-05 14:42 | 51.80468 | -0.80491 | 10294 ft | 311 kts | 115° |
| 2026-05-05 14:42 | 51.79528 | -0.77415 | 9883 ft | 300 kts | 115° |
| 2026-05-05 14:42 | 51.78622 | -0.74460 | 9503 ft | 288 kts | 116° |
| 2026-05-05 14:43 | 51.77746 | -0.71609 | 9080 ft | 279 kts | 115° |
| 2026-05-05 14:43 | 51.76904 | -0.68869 | 8705 ft | 267 kts | 115° |
| 2026-05-05 14:43 | 51.76080 | -0.66190 | 8393 ft | 271 kts | 115° |
| 2026-05-05 14:43 | 51.75238 | -0.63457 | 8045 ft | 275 kts | 115° |
| 2026-05-05 14:44 | 51.74393 | -0.60726 | 7688 ft | 275 kts | 115° |
| 2026-05-05 14:44 | 51.73530 | -0.57939 | 7436 ft | 273 kts | 116° |
| 2026-05-05 14:44 | 51.72454 | -0.55540 | 7077 ft | 269 kts | 143° |
| 2026-05-05 14:44 | 51.70760 | -0.54573 | 7029 ft | 255 kts | 180° |
| 2026-05-05 14:45 | 51.69007 | -0.54700 | 6999 ft | 255 kts | 180° |
| 2026-05-05 14:45 | 51.67229 | -0.54667 | 6970 ft | 254 kts | 178° |
| 2026-05-05 14:45 | 51.65474 | -0.54574 | 6965 ft | 249 kts | 178° |
| 2026-05-05 14:45 | 51.63759 | -0.54523 | 6949 ft | 243 kts | 185° |
| 2026-05-05 14:46 | 51.62143 | -0.55312 | 6971 ft | 246 kts | 212° |
| 2026-05-05 14:46 | 51.60896 | -0.57200 | 6976 ft | 250 kts | 239° |
| 2026-05-05 14:46 | 51.60251 | -0.59775 | 6970 ft | 248 kts | 261° |
| 2026-05-05 14:46 | 51.60061 | -0.62521 | 6977 ft | 246 kts | 267° |
| 2026-05-05 14:47 | 51.59920 | -0.65248 | 6971 ft | 246 kts | 266° |
| 2026-05-05 14:47 | 51.59764 | -0.68027 | 6669 ft | 253 kts | 265° |
| 2026-05-05 14:47 | 51.59595 | -0.70829 | 6401 ft | 252 kts | 266° |
| 2026-05-05 14:47 | 51.59423 | -0.73632 | 6118 ft | 250 kts | 265° |
| 2026-05-05 14:48 | 51.59210 | -0.76391 | 5770 ft | 247 kts | 256° |
| 2026-05-05 14:48 | 51.58315 | -0.78655 | 5426 ft | 245 kts | 217° |
| 2026-05-05 14:48 | 51.56761 | -0.79633 | 5143 ft | 242 kts | 185° |
| 2026-05-05 14:48 | 51.55075 | -0.79635 | 4837 ft | 242 kts | 176° |
| 2026-05-05 14:49 | 51.53398 | -0.79518 | 4473 ft | 245 kts | 176° |
| 2026-05-05 14:49 | 51.51681 | -0.79407 | 4131 ft | 247 kts | 176° |
| 2026-05-05 14:49 | 51.49973 | -0.79284 | 3814 ft | 243 kts | 174° |
| 2026-05-05 14:49 | 51.48429 | -0.78428 | 3420 ft | 231 kts | 141° |
| 2026-05-05 14:50 | 51.47515 | -0.76468 | 3097 ft | 214 kts | 103° |
| 2026-05-05 14:50 | 51.47482 | -0.74257 | 2999 ft | 187 kts | 78° |
| 2026-05-05 14:50 | 51.47622 | -0.72315 | 2974 ft | 175 kts | 84° |
| 2026-05-05 14:50 | 51.47664 | -0.70278 | 2818 ft | 186 kts | 87° |
| 2026-05-05 14:51 | 51.47677 | -0.68243 | 2563 ft | 181 kts | 86° |
| 2026-05-05 14:51 | 51.47683 | -0.66257 | 2310 ft | 176 kts | 86° |
| 2026-05-05 14:51 | 51.47691 | -0.64333 | 2103 ft | 170 kts | 88° |
| 2026-05-05 14:51 | 51.47697 | -0.62496 | 1839 ft | 157 kts | 87° |
| 2026-05-05 14:52 | 51.47703 | -0.60826 | 1646 ft | 144 kts | 86° |
| 2026-05-05 14:52 | 51.47709 | -0.59241 | 1497 ft | 141 kts | 86° |
| 2026-05-05 14:52 | 51.47716 | -0.57671 | 1268 ft | 142 kts | 87° |
| 2026-05-05 14:52 | 51.47721 | -0.56083 | 1055 ft | 140 kts | 84° |
| 2026-05-05 14:53 | 51.47734 | -0.54503 | 946 ft | 143 kts | 85° |
| 2026-05-05 14:53 | 51.47746 | -0.52888 | 699 ft | 145 kts | 87° |
| 2026-05-05 14:53 | 51.47735 | -0.51244 | 439 ft | 146 kts | 87° |
| 2026-05-05 14:53 | 51.47744 | -0.49650 | 279 ft | 145 kts | 85° |
| 2026-05-05 14:54 | 51.47747 | -0.48065 | 103 ft | 137 kts | 85° |
| 2026-05-05 14:54 | 51.47758 | -0.46688 | 97 ft | 103 kts | 89° |
| 2026-05-05 14:54 | 51.47765 | -0.45794 | 90 ft | 56 kts | 89° |
| 2026-05-05 14:54 | 51.47767 | -0.45293 | 94 ft | 11 kts | 91° |
| 2026-05-05 14:55 | 51.47738 | -0.45189 | 96 ft | 11 kts | 146° |
| 2026-05-05 14:55 | 51.47659 | -0.45173 | 95 ft | 13 kts | 178° |
| 2026-05-05 14:55 | 51.47594 | -0.45170 | 94 ft | 9 kts | 179° |
| 2026-05-05 14:55 | 51.47519 | -0.45203 | 95 ft | 13 kts | 234° |
| 2026-05-05 14:56 | 51.47507 | -0.45350 | 94 ft | 13 kts | 267° |
| 2026-05-05 14:56 | 51.47506 | -0.45500 | 94 ft | 13 kts | 271° |
| 2026-05-05 14:56 | 51.47507 | -0.45648 | 94 ft | 13 kts | 271° |
| 2026-05-05 14:56 | 51.47515 | -0.45789 | 92 ft | 14 kts | 275° |
| 2026-05-05 14:57 | 51.47518 | -0.45940 | 91 ft | 14 kts | 270° |
| 2026-05-05 14:57 | 51.47516 | -0.46086 | 91 ft | 14 kts | 269° |
| 2026-05-05 14:57 | 51.47515 | -0.46239 | 91 ft | 14 kts | 270° |
| 2026-05-05 14:57 | 51.47515 | -0.46391 | 91 ft | 14 kts | 270° |
| 2026-05-05 14:58 | 51.47515 | -0.46404 | 93 ft | 0 kts | 270° |
| 2026-05-05 14:58 | 51.47512 | -0.46414 | 93 ft | 2 kts | 250° |
| 2026-05-05 14:58 | 51.47502 | -0.46427 | 94 ft | 2 kts | 203° |
| 2026-05-05 14:58 | 51.47488 | -0.46418 | 94 ft | 3 kts | 150° |
| 2026-05-05 14:59 | 51.47468 | -0.46412 | 96 ft | 3 kts | 177° |
| 2026-05-05 14:59 | 51.47442 | -0.46411 | 95 ft | 4 kts | 179° |
| 2026-05-05 14:59 | 51.47431 | -0.46411 | 94 ft | 0 kts | 179° |